Time;durP1;ratioP1;P1;durP2;ratioP2;P2;SDS_P1;SDS_P2;PMS_P1;PMS_P2;Temp;Humidity;BMP_temperature;BMP_pressure;BME280_temperature;BME280_humidity;BME280_pressure;Samples;Min_cycle;Max_cycle;Signal;HPM_P1;HPM_P2
2023/09/10 00:01:48;;;;;;;17.05;11.55;;;;;;;21.15;71.01;100698.28;4153840;28;20042;-63
2023/09/10 00:03:51;;;;;;;18.08;12.18;;;;;;;21.09;71.00;100698.44;4150794;28;20050;-64
2023/09/10 00:05:54;;;;;;;19.13;12.65;;;;;;;21.07;71.19;100702.88;4153895;28;20030;-64
2023/09/10 00:07:56;;;;;;;14.05;11.13;;;;;;;21.06;71.20;100701.19;4149758;28;20129;-63
2023/09/10 00:09:59;;;;;;;21.02;12.75;;;;;;;21.04;71.43;100708.25;4153594;28;20034;-64
2023/09/10 00:12:03;;;;;;;17.40;12.07;;;;;;;21.03;71.52;100702.13;4154898;28;20484;-63
2023/09/10 00:14:06;;;;;;;;;;;;;;;20.92;71.73;100709.44;4153200;28;20068;-63
2023/09/10 00:16:09;;;;;;;14.07;11.20;;;;;;;20.93;71.71;100711.19;4170270;28;19924;-63
2023/09/10 00:18:11;;;;;;;18.13;12.48;;;;;;;20.95;71.69;100711.16;4159068;28;20044;-63
2023/09/10 00:20:14;;;;;;;14.50;12.02;;;;;;;20.97;71.47;100706.66;4155701;28;20100;-64
2023/09/10 00:22:17;;;;;;;14.82;11.98;;;;;;;20.95;71.34;100705.84;4151097;28;20045;-63
2023/09/10 00:24:20;;;;;;;16.95;12.27;;;;;;;20.92;71.44;100707.69;4150737;28;20045;-63
2023/09/10 00:26:24;;;;;;;12.93;11.55;;;;;;;20.91;71.47;100708.56;4155776;28;20124;-64
2023/09/10 00:28:29;;;;;;;19.75;12.93;;;;;;;20.92;71.14;100712.06;4149760;28;20041;-63
2023/09/10 00:30:32;;;;;;;17.67;12.32;;;;;;;20.88;71.37;100713.94;4149966;28;20041;-64
2023/09/10 00:32:35;;;;;;;17.80;12.88;;;;;;;20.89;71.19;100715.66;4171133;28;20037;-63
2023/09/10 00:34:39;;;;;;;15.73;11.50;;;;;;;20.89;70.91;100713.00;4168721;28;20041;-63
2023/09/10 00:36:43;;;;;;;;;;;;;;;20.77;71.17;100708.03;4153370;28;20056;-64
2023/09/10 00:38:45;;;;;;;14.45;12.68;;;;;;;20.80;71.07;100718.53;4155896;28;20024;-64
2023/09/10 00:40:48;;;;;;;14.05;11.43;;;;;;;20.83;71.21;100709.69;4154798;28;20033;-64
2023/09/10 00:42:51;;;;;;;14.02;11.13;;;;;;;20.78;71.29;100706.25;4152111;28;20073;-64
2023/09/10 00:44:55;;;;;;;19.58;11.85;;;;;;;20.79;71.27;100702.72;4166122;28;20528;-64
2023/09/10 00:46:58;;;;;;;;;;;;;;;20.64;71.74;100704.78;4168499;28;20034;-64
2023/09/10 00:49:01;;;;;;;17.65;12.77;;;;;;;20.64;71.56;100704.78;4168755;28;19975;-64
2023/09/10 00:51:04;;;;;;;17.63;12.38;;;;;;;20.67;71.34;100702.09;4170665;28;20448;-64
2023/09/10 00:53:07;;;;;;;15.35;12.38;;;;;;;20.67;70.79;100709.16;4155522;28;20034;-64
2023/09/10 00:55:09;;;;;;;17.10;12.13;;;;;;;20.62;71.03;100703.97;4151036;28;20046;-64
2023/09/10 00:57:13;;;;;;;16.02;13.50;;;;;;;20.62;71.15;100705.72;4151202;28;20097;-64
2023/09/10 00:59:16;;;;;;;15.25;13.65;;;;;;;20.62;71.15;100705.72;4139165;28;20128;-63
2023/09/10 01:01:19;;;;;;;15.63;13.73;;;;;;;20.57;71.26;100706.72;4169222;28;20068;-64
2023/09/10 01:03:24;;;;;;;17.45;12.32;;;;;;;20.56;71.29;100706.75;4168890;28;20040;-64
2023/09/10 01:05:27;;;;;;;16.33;12.13;;;;;;;20.55;71.42;100705.88;4154639;28;20041;-64
2023/09/10 01:07:31;;;;;;;16.17;12.65;;;;;;;20.56;71.54;100702.34;4153652;28;20040;-64
2023/09/10 01:09:34;;;;;;;18.25;12.40;;;;;;;20.56;71.69;100710.25;4154921;28;20061;-63
2023/09/10 01:11:49;;;;;;;15.23;11.73;;;;;;;20.61;72.04;100711.94;4167623;28;20140;-64
2023/09/10 01:13:58;;;;;;;18.20;12.48;;;;;;;20.58;71.87;100716.38;4146934;28;20045;-64
2023/09/10 01:16:07;;;;;;;15.68;12.27;;;;;;;20.57;71.64;100706.72;4166992;28;20095;-64
2023/09/10 01:18:20;;;;;;;17.23;12.43;;;;;;;20.57;71.31;100712.00;4150940;28;20037;-63
2023/09/10 01:20:38;;;;;;;15.10;11.48;;;;;;;20.56;71.55;100712.91;4149380;28;20099;-64
2023/09/10 01:22:51;;;;;;;12.98;11.40;;;;;;;20.56;71.51;100707.63;4164546;28;20112;-64
2023/09/10 01:24:56;;;;;;;15.50;10.88;;;;;;;20.54;71.44;100708.56;4153600;28;20128;-64
2023/09/10 01:26:59;;;;;;;13.05;9.90;;;;;;;20.50;71.49;100699.84;4136613;28;20504;-64
2023/09/10 01:29:04;;;;;;;15.00;11.07;;;;;;;20.49;71.54;100702.53;4151937;28;20389;-64
2023/09/10 01:31:08;;;;;;;12.05;10.75;;;;;;;20.46;71.29;100703.47;4155139;28;20462;-63
2023/09/10 01:33:19;;;;;;;13.27;11.27;;;;;;;20.44;71.41;100702.59;4150103;28;20045;-63
2023/09/10 01:35:33;;;;;;;13.05;11.65;;;;;;;20.43;71.53;100698.25;4148602;28;20045;-63
2023/09/10 01:37:42;;;;;;;15.13;11.10;;;;;;;20.39;71.50;100697.44;4154017;28;20037;-64
2023/09/10 01:39:49;;;;;;;12.88;10.27;;;;;;;20.38;71.28;100698.34;4151273;28;20037;-64
2023/09/10 01:41:54;;;;;;;14.63;10.65;;;;;;;20.37;71.41;100711.56;4153791;28;20432;-64
2023/09/10 01:43:59;;;;;;;13.02;10.45;;;;;;;20.35;71.39;100703.69;4153548;28;20133;-63
2023/09/10 01:46:03;;;;;;;14.75;11.38;;;;;;;20.36;71.40;100710.72;4148432;28;20080;-63
2023/09/10 01:48:06;;;;;;;13.05;10.75;;;;;;;20.34;71.53;100701.06;4150163;28;20087;-63
2023/09/10 01:50:12;;;;;;;14.98;11.63;;;;;;;20.33;71.61;100715.19;4134949;28;20042;-64
2023/09/10 01:52:15;;;;;;;16.08;11.18;;;;;;;20.29;71.92;100708.25;4139474;28;20042;-63
2023/09/10 01:54:18;;;;;;;17.17;11.90;;;;;;;20.26;71.88;100710.97;4129406;28;20057;-64
2023/09/10 01:56:21;;;;;;;16.60;12.07;;;;;;;20.23;71.72;100711.88;4150256;28;20066;-64
2023/09/10 01:58:25;;;;;;;14.60;12.07;;;;;;;20.21;72.13;100713.69;4155905;28;20639;-64
2023/09/10 02:00:28;;;;;;;13.38;11.05;;;;;;;20.21;71.69;100711.91;4137683;28;20084;-64
2023/09/10 02:02:31;;;;;;;14.88;11.38;;;;;;;20.21;71.64;100711.91;4154904;28;20048;-64
2023/09/10 02:04:34;;;;;;;13.40;10.82;;;;;;;20.19;72.10;100716.38;4168661;28;20049;-64
2023/09/10 02:06:36;;;;;;;12.98;11.43;;;;;;;20.18;72.24;100711.09;4149796;28;20092;-63
2023/09/10 02:08:39;;;;;;;12.63;11.00;;;;;;;20.11;72.73;100707.75;4153345;28;20029;-64
2023/09/10 02:10:42;;;;;;;16.77;11.95;;;;;;;20.07;72.67;100708.69;4152799;28;20412;-64
2023/09/10 02:12:45;;;;;;;14.15;10.65;;;;;;;20.04;72.36;100706.13;4151155;28;20044;-64
2023/09/10 02:14:49;;;;;;;16.33;11.32;;;;;;;20.03;72.31;100701.75;4152990;28;20040;-63
2023/09/10 02:16:52;;;;;;;;;;;;;;;19.90;72.96;100701.13;4138706;28;20053;-64
2023/09/10 02:18:55;;;;;;;13.88;11.25;;;;;;;19.92;72.81;100704.63;4167030;28;20386;-64
2023/09/10 02:20:58;;;;;;;15.13;12.10;;;;;;;19.98;73.00;100708.91;4147504;28;20121;-64
2023/09/10 02:23:01;;;;;;;16.40;12.80;;;;;;;20.03;72.79;100707.91;4166738;28;20067;-64
2023/09/10 02:25:03;;;;;;;14.27;12.13;;;;;;;20.04;72.92;100703.50;4169734;28;20557;-64
2023/09/10 02:27:06;;;;;;;19.75;12.35;;;;;;;20.05;72.90;100707.88;4150897;28;20129;-64
2023/09/10 02:29:09;;;;;;;14.98;13.00;;;;;;;20.04;72.75;100706.13;4150600;28;20041;-64
2023/09/10 02:31:14;;;;;;;15.05;12.95;;;;;;;20.03;72.63;100704.38;4139311;28;20420;-64
2023/09/10 02:33:16;;;;;;;14.98;11.68;;;;;;;19.96;73.07;100705.41;4154090;28;20033;-64
2023/09/10 02:35:19;;;;;;;12.88;11.45;;;;;;;19.96;72.67;100703.66;4147023;28;20045;-64
2023/09/10 02:37:22;;;;;;;17.33;13.82;;;;;;;19.94;72.94;100710.72;4147390;28;20041;-63
2023/09/10 02:39:24;;;;;;;15.45;12.73;;;;;;;19.91;73.00;100702.03;4149962;28;20064;-63
2023/09/10 02:41:27;;;;;;;15.43;13.73;;;;;;;19.88;72.71;100701.16;4169463;28;20131;-64
2023/09/10 02:43:30;;;;;;;20.55;14.32;;;;;;;19.83;72.93;100703.03;4137116;28;20536;-64
2023/09/10 02:45:33;;;;;;;14.05;12.45;;;;;;;19.79;73.67;100703.13;4164901;28;20091;-63
2023/09/10 02:47:37;;;;;;;15.05;12.80;;;;;;;19.79;73.66;100704.00;4151404;28;20597;-64
2023/09/10 02:49:39;;;;;;;16.33;13.68;;;;;;;19.73;73.87;100706.72;4150729;28;20057;-64
2023/09/10 02:51:42;;;;;;;15.43;13.05;;;;;;;19.67;74.06;100709.50;4151654;28;20077;-64
2023/09/10 02:53:45;;;;;;;16.80;12.77;;;;;;;19.61;74.51;100710.47;4151733;28;20037;-64
2023/09/10 02:55:47;;;;;;;16.05;12.48;;;;;;;19.64;74.67;100709.53;4152804;28;20053;-64
2023/09/10 02:57:50;;;;;;;12.80;11.05;;;;;;;19.68;74.74;100703.31;4153707;28;20029;-64
2023/09/10 02:59:53;;;;;;;16.45;12.85;;;;;;;19.72;74.41;100707.63;4152699;28;20467;-64
2023/09/10 03:01:56;;;;;;;15.45;12.27;;;;;;;19.76;74.65;100697.91;4149721;28;20037;-64
2023/09/10 03:03:59;;;;;;;17.80;13.25;;;;;;;19.80;74.30;100700.47;4134843;28;20046;-64
2023/09/10 03:06:02;;;;;;;15.35;12.43;;;;;;;19.79;74.41;100698.72;4165118;28;20037;-64
2023/09/10 03:08:06;;;;;;;13.75;12.15;;;;;;;19.80;74.52;100703.09;4148872;28;20056;-64
2023/09/10 03:10:08;;;;;;;15.95;13.15;;;;;;;19.81;74.41;100703.97;4147383;28;20044;-64
2023/09/10 03:12:24;;;;;;;15.45;12.63;;;;;;;19.80;74.09;100695.19;4164871;28;20052;-64
2023/09/10 03:14:29;;;;;;;19.73;12.85;;;;;;;19.78;74.28;100702.25;4151217;28;20620;-64
2023/09/10 03:16:32;;;;;;;15.63;12.98;;;;;;;19.80;74.40;100700.47;4151209;28;20045;-64
2023/09/10 03:18:35;;;;;;;15.98;12.90;;;;;;;19.79;74.55;100704.00;4149010;28;20084;-63
2023/09/10 03:20:39;;;;;;;21.38;13.93;;;;;;;19.73;74.87;100708.47;4140921;28;20498;-64
2023/09/10 03:22:43;;;;;;;18.77;13.65;;;;;;;19.69;75.13;100702.41;4155149;28;20046;-64
2023/09/10 03:24:46;;;;;;;25.02;15.20;;;;;;;19.68;74.96;100698.91;4151792;28;20177;-63
2023/09/10 03:26:48;;;;;;;17.85;13.07;;;;;;;19.66;75.35;100708.59;4155411;28;20037;-64
2023/09/10 03:28:51;;;;;;;15.40;12.43;;;;;;;19.66;75.02;100713.03;4154765;28;20436;-64
2023/09/10 03:30:58;;;;;;;16.50;12.70;;;;;;;19.66;75.31;100713.03;4153874;28;20173;-64
2023/09/10 03:33:03;;;;;;;19.23;14.00;;;;;;;19.65;75.47;100704.22;4138448;28;20129;-64
2023/09/10 03:35:07;;;;;;;15.05;12.20;;;;;;;19.67;75.35;100709.50;4153180;28;20029;-64
2023/09/10 03:37:11;;;;;;;22.25;13.77;;;;;;;19.65;75.20;100700.72;4153218;28;20034;-64
2023/09/10 03:39:14;;;;;;;17.10;13.48;;;;;;;19.66;75.07;100707.75;4156990;28;20033;-64
2023/09/10 03:41:17;;;;;;;16.95;13.35;;;;;;;19.65;75.03;100709.50;4168894;28;20402;-64
2023/09/10 03:43:20;;;;;;;17.55;12.93;;;;;;;19.64;75.21;100702.50;4155655;28;20048;-64
2023/09/10 03:45:27;;;;;;;18.13;13.38;;;;;;;19.62;75.33;100708.69;4153697;28;20041;-64
2023/09/10 03:47:33;;;;;;;18.40;13.35;;;;;;;19.64;75.21;100709.53;4150591;28;20029;-64
2023/09/10 03:49:36;;;;;;;17.70;13.55;;;;;;;19.61;75.16;100714.88;4174702;28;20041;-64
2023/09/10 03:51:40;;;;;;;15.75;12.85;;;;;;;19.61;75.13;100712.22;4169564;28;20543;-64
2023/09/10 03:53:44;;;;;;;19.33;14.30;;;;;;;19.61;75.33;100717.50;4149257;28;20423;-64
2023/09/10 03:55:47;;;;;;;17.92;12.57;;;;;;;19.57;75.26;100719.34;4157568;28;20030;-63
2023/09/10 03:57:51;;;;;;;19.80;12.73;;;;;;;19.56;75.87;100720.22;4153996;28;20060;-64
2023/09/10 03:59:53;;;;;;;14.98;12.68;;;;;;;19.55;75.41;100715.84;4154193;28;20128;-64
2023/09/10 04:01:59;;;;;;;16.63;12.77;;;;;;;19.57;75.72;100719.34;4139923;28;20049;-64
2023/09/10 04:04:01;;;;;;;14.93;11.75;;;;;;;19.57;75.24;100719.34;4135088;28;20550;-64
2023/09/10 04:06:04;;;;;;;15.50;10.75;;;;;;;19.54;75.74;100711.50;4148618;28;20037;-64
2023/09/10 04:08:07;;;;;;;14.95;12.85;;;;;;;19.55;75.36;100710.56;4155122;28;20112;-64
2023/09/10 04:10:12;;;;;;;17.92;11.82;;;;;;;19.51;75.25;100709.78;4148114;28;20081;-64
2023/09/10 04:12:15;;;;;;;14.98;12.55;;;;;;;19.52;75.60;100715.91;4166455;28;20048;-64
2023/09/10 04:14:18;;;;;;;14.52;12.02;;;;;;;19.49;75.27;100715.97;4173096;28;20055;-64
2023/09/10 04:16:20;;;;;;;17.65;11.80;;;;;;;19.47;75.10;100717.78;4150199;28;20037;-64
2023/09/10 04:18:23;;;;;;;17.02;13.70;;;;;;;19.45;75.17;100725.72;4152291;28;20034;-64
2023/09/10 04:20:26;;;;;;;18.17;14.90;;;;;;;19.43;74.84;100724.84;4173548;28;20128;-63
2023/09/10 04:22:33;;;;;;;17.23;14.63;;;;;;;19.41;75.26;100729.31;4155987;28;20464;-64
2023/09/10 04:24:37;;;;;;;15.70;13.38;;;;;;;19.40;75.13;100730.19;4148540;28;20570;-64
2023/09/10 04:26:42;;;;;;;21.10;15.57;;;;;;;19.40;75.66;100727.56;4157868;28;20033;-63
2023/09/10 04:28:45;;;;;;;18.60;14.32;;;;;;;19.38;75.66;100729.38;4154371;28;20382;-63
2023/09/10 04:30:48;;;;;;;15.48;13.30;;;;;;;19.36;75.72;100736.41;4151453;28;20740;-63
2023/09/10 04:32:51;;;;;;;15.27;12.77;;;;;;;19.36;75.69;100741.69;4140038;28;20046;-64
2023/09/10 04:34:54;;;;;;;17.05;14.05;;;;;;;19.36;75.24;100749.59;4154775;28;20446;-63
2023/09/10 04:36:57;;;;;;;16.50;13.15;;;;;;;19.35;75.39;100743.47;4155936;28;20051;-63
2023/09/10 04:39:05;;;;;;;18.85;13.63;;;;;;;19.38;75.66;100745.19;4156909;28;20064;-64
2023/09/10 04:41:07;;;;;;;19.60;12.32;;;;;;;19.35;75.45;100750.50;4154335;28;20100;-63
2023/09/10 04:43:12;;;;;;;13.38;11.98;;;;;;;19.32;75.77;100753.22;4149590;28;20041;-63
2023/09/10 04:45:14;;;;;;;14.73;11.20;;;;;;;19.29;76.11;100751.50;4150554;28;20069;-63
2023/09/10 04:47:24;;;;;;;18.85;12.63;;;;;;;19.30;75.86;100757.63;4156703;28;20160;-63
2023/09/10 04:49:27;;;;;;;19.90;14.27;;;;;;;19.30;75.34;100757.63;4154700;28;20176;-63
2023/09/10 04:51:30;;;;;;;19.92;13.80;;;;;;;19.28;75.31;100759.41;4149361;28;20048;-63
2023/09/10 04:53:35;;;;;;;18.40;14.23;;;;;;;19.23;75.17;100766.53;4156681;28;20116;-63
2023/09/10 04:55:38;;;;;;;17.92;13.63;;;;;;;19.19;75.21;100756.03;4153996;28;20496;-63
2023/09/10 04:57:41;;;;;;;16.52;12.55;;;;;;;19.17;75.50;100755.19;4154866;28;20376;-63
2023/09/10 04:59:45;;;;;;;22.55;14.70;;;;;;;19.19;75.10;100752.53;4137401;28;20049;-63
2023/09/10 05:01:48;;;;;;;20.30;14.10;;;;;;;19.14;75.45;100760.53;4135070;28;20093;-63
2023/09/10 05:03:51;;;;;;;17.45;14.05;;;;;;;19.12;75.72;100759.66;4166881;28;20048;-63
2023/09/10 05:05:58;;;;;;;18.88;13.90;;;;;;;19.11;75.65;100757.91;4156387;28;20037;-63
2023/09/10 05:08:00;;;;;;;16.67;12.88;;;;;;;19.10;75.42;100756.19;4138264;28;20066;-63
2023/09/10 05:10:03;;;;;;;20.13;14.35;;;;;;;19.11;75.56;100763.19;4152203;28;20517;-64
2023/09/10 05:12:07;;;;;;;16.00;12.85;;;;;;;19.13;75.93;100764.06;4134549;28;20042;-63
2023/09/10 05:14:10;;;;;;;19.20;14.57;;;;;;;19.16;75.54;100764.00;4156443;28;20069;-63
2023/09/10 05:16:14;;;;;;;17.00;14.02;;;;;;;19.17;75.78;100767.50;4143545;28;20046;-64
2023/09/10 05:18:17;;;;;;;19.83;13.68;;;;;;;19.12;76.06;100761.44;4150717;28;20041;-64
2023/09/10 05:20:20;;;;;;;22.05;14.70;;;;;;;19.08;76.23;100760.59;4156094;28;20045;-64
2023/09/10 05:22:23;;;;;;;19.00;15.55;;;;;;;19.07;75.96;100761.53;4137741;28;20049;-64
2023/09/10 05:24:26;;;;;;;16.48;14.73;;;;;;;19.04;75.89;100761.56;4153471;28;20045;-64
2023/09/10 05:26:27;;;;;;;15.90;13.48;;;;;;;19.05;76.19;100771.19;4140616;28;20136;-64
2023/09/10 05:28:31;;;;;;;16.30;13.77;;;;;;;19.10;75.83;100771.13;4153969;28;20072;-64
2023/09/10 05:30:38;;;;;;;19.30;14.50;;;;;;;19.09;76.07;100767.63;4151845;28;20099;-64
2023/09/10 05:32:42;;;;;;;15.25;12.93;;;;;;;19.11;76.20;100772.88;4169889;28;20044;-64
2023/09/10 05:34:45;;;;;;;14.27;12.30;;;;;;;19.12;76.17;100779.88;4144124;28;20033;-64
2023/09/10 05:36:48;;;;;;;17.30;14.65;;;;;;;19.14;76.35;100778.09;4152023;28;20564;-64
2023/09/10 05:38:52;;;;;;;19.25;14.85;;;;;;;19.14;76.83;100783.34;4153919;28;20025;-64
2023/09/10 05:41:01;;;;;;;17.42;13.52;;;;;;;19.11;76.76;100778.13;4154951;28;20076;-63
2023/09/10 05:43:05;;;;;;;19.33;13.48;;;;;;;19.10;77.43;100776.38;4151512;28;20140;-64
2023/09/10 05:45:09;;;;;;;19.63;14.63;;;;;;;19.13;77.14;100781.63;4148491;28;20455;-64
2023/09/10 05:47:12;;;;;;;16.48;14.50;;;;;;;19.17;77.06;100784.19;4153012;28;21740;-63
2023/09/10 05:49:16;;;;;;;17.87;13.37;;;;;;;19.21;77.26;100779.72;4162425;28;20049;-64
2023/09/10 05:51:19;;;;;;;18.35;14.27;;;;;;;19.27;77.24;100776.13;4166377;28;20120;-63
2023/09/10 05:53:22;;;;;;;17.08;15.25;;;;;;;19.33;76.86;100776.00;4154085;28;20037;-64
2023/09/10 05:55:25;;;;;;;18.60;15.80;;;;;;;19.36;76.91;100773.31;4169118;28;20040;-64
2023/09/10 05:57:29;;;;;;;22.42;14.98;;;;;;;19.39;76.93;100772.41;4166646;28;20036;-63
2023/09/10 05:59:32;;;;;;;17.20;14.65;;;;;;;19.38;76.69;100776.81;4148241;28;20042;-64
2023/09/10 06:01:35;;;;;;;20.85;14.85;;;;;;;19.40;77.03;100780.28;4150214;28;20045;-64
2023/09/10 06:03:38;;;;;;;17.40;15.25;;;;;;;19.43;76.79;100782.88;4147430;28;20037;-63
2023/09/10 06:05:43;;;;;;;19.80;16.17;;;;;;;19.44;77.25;100787.25;4155003;28;20087;-64
2023/09/10 06:07:46;;;;;;;17.13;15.35;;;;;;;19.45;77.43;100789.00;4153820;28;20503;-63
2023/09/10 06:09:48;;;;;;;18.45;15.68;;;;;;;19.50;77.43;100781.88;4149961;28;20034;-63
2023/09/10 06:11:51;;;;;;;21.50;16.17;;;;;;;19.54;76.95;100782.69;4153238;28;20075;-63
2023/09/10 06:13:54;;;;;;;15.88;13.52;;;;;;;19.57;77.42;100787.91;4152781;28;20370;-64
2023/09/10 06:15:57;;;;;;;17.48;14.40;;;;;;;19.62;77.13;100786.03;4155599;28;22880;-63
2023/09/10 06:18:00;;;;;;;16.52;14.75;;;;;;;19.63;77.00;100787.78;4151904;28;20046;-64
2023/09/10 06:20:05;;;;;;;23.30;16.88;;;;;;;19.66;77.24;100798.28;4145490;28;20036;-64
2023/09/10 06:22:09;;;;;;;22.30;17.42;;;;;;;19.69;76.87;100790.31;4151622;28;20144;-63
2023/09/10 06:24:12;;;;;;;21.85;16.55;;;;;;;19.73;76.99;100793.78;4172961;22;20046;-64
2023/09/10 06:26:15;;;;;;;19.10;16.52;;;;;;;19.76;77.16;100792.88;4164685;28;20064;-64
2023/09/10 06:28:20;;;;;;;21.52;15.20;;;;;;;19.78;77.42;100793.69;4172386;28;20095;-64
2023/09/10 06:30:23;;;;;;;24.08;17.30;;;;;;;19.83;77.13;100794.50;4165837;28;20025;-64
2023/09/10 06:32:25;;;;;;;18.42;16.23;;;;;;;19.85;77.15;100787.44;4165616;28;20042;-64
2023/09/10 06:34:30;;;;;;;21.92;17.55;;;;;;;19.88;77.53;100796.16;4166257;28;20527;-64
2023/09/10 06:36:33;;;;;;;20.25;17.60;;;;;;;19.94;77.27;100802.22;4166648;28;20041;-64
2023/09/10 06:38:37;;;;;;;19.10;15.95;;;;;;;19.99;77.10;100803.88;4147034;28;20049;-64
2023/09/10 06:40:40;;;;;;;18.95;16.27;;;;;;;20.04;77.05;100802.00;4146820;28;20120;-64
2023/09/10 06:42:43;;;;;;;18.42;15.93;;;;;;;20.08;76.82;100805.47;4161656;28;20033;-64
2023/09/10 06:45:04;;;;;;;18.95;15.65;;;;;;;20.10;76.63;100801.03;4159853;28;20057;-64
2023/09/10 06:47:09;;;;;;;20.63;16.45;;;;;;;20.14;76.48;100800.06;4159564;28;20042;-64
2023/09/10 06:49:12;;;;;;;21.20;16.98;;;;;;;20.18;76.27;100807.03;4155516;28;20048;-63
2023/09/10 06:51:17;;;;;;;19.35;16.73;;;;;;;20.22;75.73;100806.06;4154157;28;20052;-64
2023/09/10 06:53:20;;;;;;;18.23;16.27;;;;;;;20.26;75.64;100806.84;4156674;28;20355;-64
2023/09/10 06:55:24;;;;;;;16.08;11.35;;;;;;;20.34;75.68;100817.25;4142978;28;20050;-63
2023/09/10 06:57:29;;;;;;;;;;;;;;;20.49;76.37;100810.81;4161395;28;20072;-64
2023/09/10 06:59:32;;;;;;;13.07;10.65;;;;;;;20.69;75.21;100816.56;4170131;28;19968;-64
2023/09/10 07:01:37;;;;;;;16.10;12.55;;;;;;;20.88;74.67;100824.94;4168089;28;20045;-64
2023/09/10 07:03:41;;;;;;;19.17;13.00;;;;;;;21.02;74.31;100826.38;4175553;28;20041;-64
2023/09/10 07:05:44;;;;;;;19.52;13.27;;;;;;;21.12;74.18;100822.63;4170620;28;20140;-64
2023/09/10 07:07:53;;;;;;;17.13;12.85;;;;;;;21.20;73.84;100817.16;4173713;28;20095;-64
2023/09/10 07:09:55;;;;;;;19.20;13.43;;;;;;;21.26;73.69;100820.53;4173481;28;20391;-63
2023/09/10 07:11:59;;;;;;;14.95;12.65;;;;;;;21.36;73.32;100822.94;4171674;28;20068;-63
2023/09/10 07:14:01;;;;;;;17.05;13.98;;;;;;;21.38;72.59;100824.63;4172215;28;20041;-63
2023/09/10 07:16:05;;;;;;;16.40;13.75;;;;;;;21.45;72.16;100826.22;4158893;28;20377;-62
2023/09/10 07:18:08;;;;;;;17.40;13.83;;;;;;;21.51;72.02;100830.53;4155795;28;20483;-62
2023/09/10 07:20:11;;;;;;;14.60;13.00;;;;;;;21.55;71.79;100821.59;4159665;28;20583;-63
2023/09/10 07:22:14;;;;;;;17.95;12.88;;;;;;;21.61;71.68;100823.19;4161050;28;20041;-68
2023/09/10 07:24:17;;;;;;;25.08;21.77;;;;;;;21.61;71.07;100820.56;4164024;28;20038;-67
2023/09/10 07:26:20;;;;;;;27.83;21.98;;;;;;;21.72;70.72;100828.22;4164354;28;20059;-67
2023/09/10 07:28:24;;;;;;;24.98;21.83;;;;;;;21.70;70.43;100827.38;4164611;28;20092;-66
2023/09/10 07:30:27;;;;;;;26.08;19.00;;;;;;;21.67;70.85;100827.47;4165196;28;20042;-68
2023/09/10 07:32:30;;;;;;;28.83;25.63;;;;;;;21.76;69.86;100829.91;4166509;28;20137;-68
2023/09/10 07:34:33;;;;;;;21.40;18.35;;;;;;;21.74;70.22;100824.66;4161908;28;20096;-67
2023/09/10 07:36:38;;;;;;;28.23;23.98;;;;;;;21.79;69.52;100827.16;4155793;28;20228;-66
2023/09/10 07:38:40;;;;;;;24.48;18.05;;;;;;;21.76;70.09;100828.09;4154744;28;20091;-65
2023/09/10 07:40:43;;;;;;;19.17;16.67;;;;;;;21.82;70.42;100823.56;4157840;28;20591;-62
2023/09/10 07:42:50;;;;;;;25.55;20.75;;;;;;;21.90;70.14;100832.16;4156174;28;20045;-62
2023/09/10 07:44:54;;;;;;;27.70;21.98;;;;;;;21.96;69.87;100827.56;4164648;28;20069;-62
2023/09/10 07:46:57;;;;;;;23.25;20.70;;;;;;;22.03;69.58;100832.69;4149919;28;20069;-61
2023/09/10 07:49:00;;;;;;;35.13;27.70;;;;;;;22.12;68.56;100832.44;4158433;28;20497;-61
2023/09/10 07:51:02;;;;;;;25.45;21.80;;;;;;;22.07;69.05;100837.00;4161497;28;20041;-61
2023/09/10 07:53:05;;;;;;;28.73;24.73;;;;;;;22.14;68.92;100838.56;4164599;28;20378;-61
2023/09/10 07:55:08;;;;;;;31.45;25.73;;;;;;;22.21;68.07;100837.50;4164648;28;20060;-61
2023/09/10 07:57:11;;;;;;;32.03;26.65;;;;;;;22.28;67.41;100833.75;4157583;28;20042;-62
2023/09/10 07:59:17;;;;;;;30.65;27.25;;;;;;;22.31;67.18;100838.97;4163699;28;20064;-61
2023/09/10 08:01:23;;;;;;;30.25;26.92;;;;;;;22.33;66.80;100838.06;4162314;28;20109;-61
2023/09/10 08:03:26;;;;;;;24.08;21.52;;;;;;;22.22;67.62;100836.56;4165155;28;20072;-61
2023/09/10 08:05:29;;;;;;;23.17;20.67;;;;;;;22.25;68.05;100833.84;4159305;28;20053;-59
2023/09/10 08:07:32;;;;;;;32.05;25.42;;;;;;;22.36;67.58;100841.50;4161214;28;20053;-59
2023/09/10 08:09:34;;;;;;;33.75;26.25;;;;;;;22.45;66.86;100843.03;4162578;28;20049;-59
2023/09/10 08:11:37;;;;;;;28.25;22.52;;;;;;;22.47;66.79;100849.13;4162954;28;20099;-59
2023/09/10 08:13:42;;;;;;;23.70;21.20;;;;;;;22.47;67.21;100839.44;4158015;28;20087;-60
2023/09/10 08:15:44;;;;;;;;;;;;;;;22.47;67.46;100839.44;4157139;28;20045;-59
2023/09/10 08:17:51;;;;;;;33.13;23.35;;;;;;;22.60;66.84;100847.84;4162967;28;19924;-60
2023/09/10 08:19:54;;;;;;;27.15;23.92;;;;;;;22.75;65.41;100845.66;4164343;28;20042;-61
2023/09/10 08:21:57;;;;;;;44.75;26.67;;;;;;;22.82;64.88;100849.88;4158702;28;20080;-61
2023/09/10 08:24:00;;;;;;;26.75;23.35;;;;;;;22.78;65.21;100843.81;4153788;28;20096;-62
2023/09/10 08:26:03;;;;;;;44.83;26.80;;;;;;;22.88;64.43;100843.50;4163238;28;20045;-61
2023/09/10 08:28:06;;;;;;;32.42;23.42;;;;;;;22.96;63.62;100846.81;4154864;28;20045;-58
2023/09/10 08:30:10;;;;;;;29.90;21.77;;;;;;;22.87;64.18;100847.97;4162381;28;20049;-59
2023/09/10 08:32:13;;;;;;;26.35;23.50;;;;;;;22.87;64.31;100842.66;4159926;28;20037;-59
2023/09/10 08:34:20;;;;;;;27.70;23.00;;;;;;;22.98;64.10;100840.53;4156030;28;20469;-60
2023/09/10 08:36:23;;;;;;;27.88;24.98;;;;;;;23.06;64.07;100848.25;4162494;28;20045;-61
2023/09/10 08:38:26;;;;;;;28.65;24.33;;;;;;;23.21;63.06;100846.91;4155370;28;20408;-61
2023/09/10 08:40:29;;;;;;;30.35;24.85;;;;;;;23.15;63.21;100842.69;4156061;28;20497;-61
2023/09/10 08:42:43;;;;;;;26.52;23.60;;;;;;;23.21;63.44;100840.75;4158789;28;20034;-62
2023/09/10 08:44:52;;;;;;;27.55;24.33;;;;;;;23.38;62.18;100842.84;4152796;28;20048;-61
2023/09/10 08:46:56;;;;;;;21.40;19.10;;;;;;;23.35;62.34;100841.19;4156649;28;20045;-63
2023/09/10 08:49:01;;;;;;;23.38;20.90;;;;;;;23.34;63.02;100845.59;4154422;28;20092;-62
2023/09/10 08:51:06;;;;;;;22.80;18.73;;;;;;;23.41;63.26;100837.44;4158689;28;20034;-61
2023/09/10 08:53:13;;;;;;;26.40;23.58;;;;;;;23.56;62.01;100842.22;4162553;28;20045;-61
2023/09/10 08:55:16;;;;;;;23.25;20.85;;;;;;;23.64;61.96;100841.97;4160617;28;20489;-61
2023/09/10 08:57:18;;;;;;;22.83;18.70;;;;;;;23.70;62.11;100845.28;4159138;28;20057;-61
2023/09/10 08:59:23;;;;;;;23.02;20.10;;;;;;;23.90;61.21;100845.53;4163639;28;20109;-60
2023/09/10 09:01:26;;;;;;;20.67;17.45;;;;;;;23.93;61.32;100846.28;4161145;28;20044;-60
2023/09/10 09:03:29;;;;;;;29.88;21.00;;;;;;;24.07;60.44;100835.19;4158783;28;20124;-59
2023/09/10 09:05:35;;;;;;;19.98;17.77;;;;;;;24.11;60.80;100838.59;4164223;28;20516;-60
2023/09/10 09:07:45;;;;;;;20.45;13.95;;;;;;;24.19;61.72;100833.88;4156061;28;20034;-62
2023/09/10 09:09:54;;;;;;;22.05;16.15;;;;;;;24.27;61.20;100831.81;4159839;28;20145;-61
2023/09/10 09:11:57;;;;;;;18.92;16.77;;;;;;;24.35;60.07;100832.38;4164221;28;20038;-62
2023/09/10 09:14:00;;;;;;;28.30;19.45;;;;;;;24.52;59.55;100823.78;4164207;28;20250;-62
2023/09/10 09:16:04;;;;;;;22.43;19.40;;;;;;;24.63;58.54;100822.53;4164128;28;20045;-62
2023/09/10 09:18:09;;;;;;;17.42;15.60;;;;;;;24.63;59.03;100831.34;4164437;28;20037;-62
2023/09/10 09:20:13;;;;;;;19.08;15.63;;;;;;;24.70;59.45;100824.88;4158377;28;20321;-63
2023/09/10 09:22:20;;;;;;;21.40;16.92;;;;;;;24.77;59.54;100824.66;4154795;28;20487;-63
2023/09/10 09:24:26;;;;;;;19.10;16.67;;;;;;;24.84;59.27;100818.19;4150259;28;20133;-63
2023/09/10 09:26:29;;;;;;;21.52;14.77;;;;;;;24.96;59.01;100816.81;4161657;28;20080;-63